Latest Weather Observations for Mangalore

IDV60801

Issued at 11:32 pm EST Monday 26 June 2017 (issued every 30 minutes, with the page automatically refreshed every 10 minutes)

About weather observations | Map of weather stations | Latest weather observations for VIC | Other Formats
Station Details ID: 088109 Name: MANGALORE AIRPORT Lat: -36.89 Lon: 145.19 Height: 140.8 m
Data from the previous 72 hours. | See also: Recent months at Mangalore
Date/Time
EST
Temp
°C
App
Temp
°C
Dew
Point
°C
Rel
Hum
%
Delta-T
°C
Wind Press
QNH
hPa
Press
MSL
hPa
Rain since
9am
mm
Dir  Spd
km/h
Gust
km/h
Spd
kts
Gust
kts
26/11:30pm 6.7 4.6 5.8 94 0.4 S 6 7 3 4 1025.9 1026.2 0.0
26/11:00pm 7.2 6.3 6.0 92 0.5 CALM 0 0 0 0 1025.9 1026.2 0.0
26/10:30pm 7.8 5.9 6.6 92 0.6 S 6 7 3 4 1025.7 1026.0 0.0
26/10:00pm 7.9 6.0 6.7 92 0.6 S 6 7 3 4 1025.8 1026.1 0.0
26/09:30pm 7.9 6.7 6.4 90 0.7 S 2 7 1 4 1025.8 1026.1 0.0
26/09:00pm 8.1 7.3 6.6 90 0.7 CALM 0 0 0 0 1025.9 1026.2 0.0
26/08:30pm 8.5 6.6 6.5 87 0.9 S 6 7 3 4 1025.8 1026.1 0.0
26/08:00pm 8.6 7.8 6.4 86 1.0 CALM 0 0 0 0 1025.9 1026.2 0.0
26/07:30pm 8.6 7.7 6.1 84 1.2 CALM 0 0 0 0 1025.6 1025.9 0.0
26/07:00pm 8.7 7.0 6.0 83 1.2 S 4 7 2 4 1025.4 1025.7 0.0
26/06:30pm 9.4 7.2 6.1 80 1.5 S 7 9 4 5 1025.4 1025.7 0.0
26/06:00pm 9.7 7.7 6.2 79 1.6 S 6 9 3 5 1025.2 1025.5 0.0
26/05:30pm 9.9 8.6 5.9 76 1.9 S 2 7 1 4 1024.9 1025.2 0.0
26/05:00pm 10.9 8.7 5.4 69 2.5 S 6 7 3 4 1024.5 1024.8 0.0
26/04:30pm 11.2 8.8 5.3 67 2.7 S 7 7 4 4 1024.3 1024.6 0.0
26/04:00pm 11.5 8.6 4.9 64 3.0 S 9 13 5 7 1024.2 1024.5 0.0
26/03:30pm 11.9 9.7 5.5 65 3.0 SE 6 9 3 5 1024.1 1024.4 0.0
26/03:00pm 12.1 10.7 5.3 63 3.2 W 2 6 1 3 1023.9 1024.2 0.0
26/02:30pm 11.6 9.4 5.3 65 2.9 WNW 6 11 3 6 1023.7 1024.0 0.0
26/02:00pm 11.4 9.3 6.5 72 2.3 NE 7 9 4 5 1023.8 1024.1 0.0
26/01:30pm 9.8 8.0 7.1 83 1.3 NE 6 7 3 4 1023.9 1024.2 0.0
26/01:24pm 9.2 7.4 7.2 87 0.9 NE 6 7 3 4 1024.0 1024.3 0.0
26/01:00pm 8.6 6.9 7.5 93 0.5 NE 6 7 3 4 1024.2 1024.5 0.0
26/12:59pm 8.4 6.6 7.3 93 0.5 NE 6 7 3 4 1024.2 1024.5 0.0
26/12:30pm 7.0 5.5 6.9 99 0.0 NE 4 9 2 5 1024.4 1024.7 0.0
26/12:00pm 6.6 5.0 6.5 99 0.0 NE 4 7 2 4 1024.9 1025.2 0.0
26/11:56am 6.4 5.2 6.3 99 0.0 NE 2 7 1 4 1024.9 1025.2 0.0
26/11:30am 5.7 4.7 5.6 99 0.0 CALM 0 0 0 0 1025.0 1025.3 0.0
26/11:00am 5.2 3.3 5.1 99 0.0 NE 4 7 2 4 1025.1 1025.4 0.0
26/10:58am 5.0 3.1 4.9 99 0.0 NE 4 7 2 4 1025.1 1025.4 0.0
26/10:30am 4.5 2.1 4.4 99 0.0 NE 6 9 3 5 1025.0 1025.3 0.0
26/10:00am 4.2 2.1 4.1 99 0.0 NE 4 6 2 3 1024.7 1025.0 0.0
26/09:30am 4.0 1.5 3.9 99 0.0 NE 6 9 3 5 1024.3 1024.6 0.0
26/09:00am 3.4 0.8 3.3 99 0.0 NE 6 9 3 5 1023.8 1024.1 0.2
26/08:30am 2.7 -0.2 2.6 99 0.0 NE 7 11 4 6 1023.3 1023.6 0.2
26/08:00am 2.0 0.3 1.9 99 0.0 CALM 0 0 0 0 1023.0 1023.3 0.2
26/07:30am 1.7 -1.4 1.6 99 0.0 NE 7 9 4 5 1022.3 1022.6 0.2
26/07:00am 2.0 0.3 1.9 99 0.0 CALM 0 0 0 0 1022.0 1022.3 0.2
26/06:30am 2.5 -0.2 2.4 99 0.0 NE 6 6 3 3 1021.7 1022.0 0.2
26/06:00am 2.4 -0.9 2.3 99 0.0 NE 9 11 5 6 1021.4 1021.7 0.2
26/05:30am 1.6 -1.5 1.3 98 0.1 NE 7 11 4 6 1021.3 1021.6 0.2
26/05:00am 1.5 -0.3 1.2 98 0.1 CALM 0 6 0 3 1021.1 1021.4 0.2
26/04:30am 1.8 -1.1 1.5 98 0.1 NE 6 7 3 4 1020.8 1021.0 0.2
26/04:10am 1.8 -0.7 1.5 98 0.1 NE 4 7 2 4 1020.7 1020.9 0.2
26/04:00am 1.7 -1.4 1.4 98 0.1 NE 7 7 4 4 1020.8 1021.0 0.2
26/03:45am 2.0 0.3 1.6 97 0.2 CALM 0 0 0 0 1020.8 1021.0 0.2
26/03:30am 2.8 0.1 2.5 98 0.1 NE 6 7 3 4 1020.7 1020.9 0.2
26/03:23am 2.4 -0.4 2.1 98 0.1 NE 6 7 3 4 1020.8 1021.0 0.2
26/03:02am 2.0 -1.0 1.7 98 0.1 NE 7 9 4 5 1020.6 1020.8 0.2
26/03:00am 2.0 -1.0 1.7 98 0.1 NE 7 9 4 5 1020.6 1020.8 0.2
26/02:43am 2.2 -0.6 1.9 98 0.1 NE 6 7 3 4 1020.3 1020.5 0.2
26/02:38am 2.5 -0.3 2.2 98 0.1 NE 6 7 3 4 1020.3 1020.5 0.2
26/02:30am 2.5 -0.3 2.2 98 0.1 NE 6 7 3 4 1020.2 1020.4 0.2
26/02:22am 2.0 -0.9 1.6 97 0.2 NE 6 7 3 4 1020.2 1020.4 0.2
26/02:00am 3.4 0.8 3.1 98 0.1 NE 6 6 3 3 1020.1 1020.3 0.2
26/01:30am 3.5 2.0 3.1 97 0.2 CALM 0 0 0 0 1019.9 1020.1 0.2
26/01:00am 3.6 2.1 3.2 97 0.2 CALM 0 0 0 0 1019.9 1020.1 0.2
26/12:32am 4.1 2.7 3.8 98 0.1 CALM 0 0 0 0 1019.9 1020.1 0.2
26/12:30am 4.7 3.5 4.4 98 0.1 CALM 0 0 0 0 1019.9 1020.1 0.2
26/12:20am 4.6 3.3 4.3 98 0.1 CALM 0 0 0 0 1019.9 1020.1 0.2
26/12:00am 4.6 2.6 4.3 98 0.1 NE 4 7 2 4 1019.9 1020.1 0.2
 
Date/Time
EST
Temp
°C
App
Temp
°C
Dew
Point
°C
Rel
Hum
%
Delta-T
°C
Wind Press
QNH
hPa
Press
MSL
hPa
Rain since
9am
mm
Dir  Spd
km/h
Gust
km/h
Spd
kts
Gust
kts
25/11:30pm 3.8 1.0 3.2 96 0.2 NE 7 9 4 5 1019.8 1020.0 0.2
25/11:17pm 4.7 2.1 4.0 95 0.3 NE 7 7 4 4 1019.8 1020.0 0.0
25/11:00pm 5.7 3.4 5.0 95 0.3 NE 6 7 3 4 1019.9 1020.1 0.0
25/10:30pm 5.7 2.9 5.0 95 0.3 NE 9 13 5 7 1019.8 1020.0 0.0
25/10:00pm 5.5 2.6 4.5 93 0.4 NE 9 11 5 6 1019.7 1019.9 0.0
25/09:30pm 5.3 2.3 4.3 93 0.4 NE 9 11 5 6 1019.6 1019.8 0.0
25/09:00pm 5.2 2.2 4.0 92 0.5 NE 9 13 5 7 1019.4 1019.6 0.0
25/08:30pm 5.0 1.2 4.0 93 0.4 NE 13 15 7 8 1019.0 1019.2 0.0
25/08:00pm 5.4 1.7 4.4 93 0.4 ENE 13 15 7 8 1018.8 1019.0 0.0
25/07:30pm 6.0 3.1 4.6 91 0.6 ENE 9 11 5 6 1018.6 1018.9 0.0
25/07:00pm 6.1 2.8 4.7 91 0.6 NE 11 13 6 7 1018.3 1018.6 0.0
25/06:30pm 7.6 4.1 5.6 87 0.9 NE 13 15 7 8 1018.0 1018.3 0.0
25/06:00pm 8.6 6.0 6.1 84 1.1 NE 9 13 5 7 1017.7 1018.0 0.0
25/05:30pm 9.0 6.8 6.4 84 1.2 NE 7 9 4 5 1017.3 1017.6 0.0
25/05:00pm 9.0 6.0 6.1 82 1.3 ENE 11 15 6 8 1017.2 1017.5 0.0
25/04:30pm 9.8 6.5 6.3 79 1.6 NE 13 17 7 9 1017.0 1017.3 0.0
25/04:00pm 11.3 8.1 7.0 75 2.1 NNE 13 19 7 10 1016.7 1017.0 0.0
25/03:30pm 11.4 7.5 6.9 74 2.2 N 17 20 9 11 1016.7 1017.0 0.0
25/03:00pm 11.3 7.7 6.8 74 2.1 NNE 15 19 8 10 1016.5 1016.8 0.0
25/02:30pm 11.1 7.3 6.0 71 2.4 NNE 15 19 8 10 1016.8 1017.1 0.0
25/02:00pm 11.5 7.8 6.4 71 2.4 N 15 20 8 11 1016.9 1017.2 0.0
25/01:30pm 10.6 6.5 6.0 73 2.1 NNE 17 22 9 12 1017.2 1017.5 0.0
25/01:00pm 10.2 5.9 5.4 72 2.2 NNE 17 20 9 11 1017.5 1017.8 0.0
25/12:30pm 10.1 6.2 5.5 73 2.1 N 15 19 8 10 1017.9 1018.2 0.0
25/12:00pm 9.6 5.5 4.6 71 2.2 N 15 20 8 11 1018.4 1018.7 0.0
25/11:30am 9.5 5.8 4.3 70 2.3 N 13 19 7 10 1019.0 1019.2 0.0
25/11:00am 9.1 4.9 3.7 69 2.4 N 15 19 8 10 1019.2 1019.4 0.0
25/10:30am 8.5 4.8 4.5 76 1.8 NNE 13 17 7 9 1019.3 1019.5 0.0
25/10:00am 7.5 4.6 4.5 81 1.3 NNE 9 11 5 6 1019.4 1019.6 0.0
25/09:30am 7.6 4.1 3.6 76 1.7 NNE 11 13 6 7 1019.2 1019.4 0.0
25/09:00am 7.4 4.3 3.6 77 1.6 SSW 9 13 5 7 1019.1 1019.3 0.4
25/08:30am 6.0 2.9 3.7 85 1.0 SSW 9 13 5 7 1018.9 1019.1 0.4
25/08:00am 5.5 2.8 3.8 89 0.7 SSW 7 11 4 6 1018.9 1019.1 0.4
25/07:30am 5.0 1.8 3.3 89 0.7 N 9 9 5 5 1018.5 1018.8 0.4
25/07:00am 5.0 1.6 4.0 93 0.4 N 11 13 6 7 1018.0 1018.3 0.4
25/06:30am 5.2 2.5 3.7 90 0.6 N 7 11 4 6 1018.4 1018.7 0.2
25/06:00am 5.3 3.5 3.6 89 0.7 N 2 6 1 3 1018.0 1018.3 0.2
25/05:30am 5.1 2.0 3.4 89 0.7 N 9 9 5 5 1017.7 1018.0 0.2
25/05:00am 5.0 2.2 3.0 87 0.8 N 7 9 4 5 1017.8 1018.1 0.2
25/04:30am 5.7 2.1 2.9 82 1.2 N 11 13 6 7 1017.6 1017.9 0.0
25/04:00am 5.5 2.7 3.0 84 1.0 N 7 11 4 6 1017.9 1018.2 0.0
25/03:30am 5.9 2.6 2.4 78 1.4 N 9 13 5 7 1018.1 1018.4 0.0
25/03:00am 5.8 2.6 2.8 81 1.2 ESE 9 11 5 6 1018.1 1018.4 0.0
25/02:30am 5.7 2.9 2.9 82 1.2 ESE 7 9 4 5 1017.7 1018.0 0.0
25/02:00am 6.2 2.5 2.3 76 1.6 ESE 11 15 6 8 1017.5 1017.8 0.0
25/01:30am 5.7 2.8 2.7 81 1.2 WNW 7 9 4 5 1017.9 1018.2 0.0
25/01:00am 5.7 3.1 3.0 83 1.1 WNW 6 7 3 4 1018.1 1018.4 0.0
25/12:30am 5.6 2.4 2.9 83 1.1 WNW 9 11 5 6 1018.1 1018.4 0.0
25/12:00am 5.6 2.4 3.1 84 1.0 WNW 9 11 5 6 1018.4 1018.7 0.0
 
Date/Time
EST
Temp
°C
App
Temp
°C
Dew
Point
°C
Rel
Hum
%
Delta-T
°C
Wind Press
QNH
hPa
Press
MSL
hPa
Rain since
9am
mm
Dir  Spd
km/h
Gust
km/h
Spd
kts
Gust
kts
24/11:30pm 5.7 4.2 3.2 84 1.0 CALM 0 0 0 0 1018.8 1019.0 0.0
24/11:00pm 5.9 4.5 3.4 84 1.1 CALM 0 0 0 0 1018.8 1019.0 0.0
24/10:30pm 5.8 4.3 3.0 82 1.2 CALM 0 0 0 0 1018.6 1018.9 0.0
24/10:00pm 5.8 4.3 3.1 83 1.1 CALM 0 0 0 0 1018.8 1019.0 0.0
24/09:30pm 6.0 4.5 3.2 82 1.2 CALM 0 0 0 0 1019.0 1019.2 0.0
24/09:00pm 6.0 4.4 2.6 79 1.4 CALM 0 0 0 0 1018.9 1019.1 0.0
24/08:30pm 6.4 4.7 1.7 72 1.9 CALM 0 0 0 0 1018.9 1019.1 0.0
24/08:00pm 5.9 4.2 1.6 74 1.7 CALM 0 0 0 0 1018.8 1019.0 0.0
24/07:30pm 7.1 4.5 1.0 65 2.5 WNW 4 7 2 4 1018.5 1018.8 0.0
24/07:00pm 7.4 3.9 1.0 64 2.6 WNW 9 11 5 6 1018.5 1018.8 0.0
24/06:30pm 7.5 4.4 1.6 66 2.4 WNW 7 11 4 6 1018.3 1018.6 0.0
24/06:00pm 8.1 4.6 1.5 63 2.7 WNW 9 11 5 6 1018.1 1018.4 0.0
24/05:30pm 9.2 5.5 2.1 61 3.0 W 11 17 6 9 1018.0 1018.3 0.0
24/05:00pm 9.4 6.0 2.0 60 3.1 WNW 9 11 5 6 1017.8 1018.1 0.0
24/04:30pm 9.9 6.9 2.3 59 3.2 WNW 7 9 4 5 1017.7 1018.0 0.0
24/04:00pm 10.5 7.5 1.9 55 3.7 W 7 11 4 6 1017.7 1018.0 0.0
24/03:30pm 10.6 6.7 0.9 51 4.0 SW 11 15 6 8 1017.5 1017.8 0.0
24/03:00pm 11.1 7.5 0.5 48 4.4 S 9 11 5 6 1017.3 1017.6 0.0
24/02:30pm 10.7 7.6 1.5 53 3.9 S 7 9 4 5 1017.4 1017.7 0.0
24/02:00pm 10.8 7.3 1.1 51 4.1 S 9 13 5 7 1017.5 1017.8 0.0
24/01:30pm 11.2 6.9 1.2 50 4.2 SW 13 20 7 11 1017.7 1018.0 0.0
24/01:00pm 10.3 6.0 1.2 53 3.8 S 13 19 7 10 1018.0 1018.3 0.0
24/12:30pm 10.3 6.5 1.7 55 3.6 SW 11 15 6 8 1018.3 1018.6 0.0
24/12:00pm 10.4 6.8 2.7 59 3.3 SSW 11 17 6 9 1018.4 1018.7 0.0
24/11:30am 9.9 6.1 2.0 58 3.3 SW 11 19 6 10 1018.8 1019.0 0.0
24/11:00am 10.1 6.3 4.0 66 2.7 WSW 13 17 7 9 1019.1 1019.3 0.0
24/10:30am 9.1 6.3 5.3 77 1.7 SW 9 13 5 7 1019.3 1019.5 0.0
24/10:00am 7.9 5.3 5.9 87 0.9 N 9 11 5 6 1019.3 1019.5 0.0
24/09:30am 6.2 4.4 5.5 95 0.3 N 4 7 2 4 1019.1 1019.3 0.0
24/09:00am 4.9 3.0 4.8 99 0.0 N 4 6 2 3 1018.9 1019.1 0.0
24/08:30am 3.9 2.5 3.8 99 0.0 CALM 0 0 0 0 1018.6 1018.9 0.0
24/08:25am 3.4 2.0 3.3 99 0.0 CALM 0 0 0 0 1018.5 1018.8 0.0
24/08:00am 1.2 -0.6 0.9 98 0.1 CALM 0 0 0 0 1018.3 1018.6 0.0
24/07:57am 1.0 -0.9 0.7 98 0.1 CALM 0 0 0 0 1018.2 1018.5 0.0
24/07:30am 1.8 0.0 1.5 98 0.1 CALM 0 0 0 0 1017.9 1018.2 0.0
24/07:05am 2.2 0.5 1.9 98 0.1 CALM 0 4 0 2 1017.5 1017.8 0.0
24/07:00am 1.8 -0.3 1.5 98 0.1 N 2 6 1 3 1017.4 1017.7 0.0
24/06:39am 2.5 -0.5 2.2 98 0.1 N 7 7 4 4 1017.1 1017.4 0.0
24/06:30am 2.2 -0.6 1.9 98 0.1 N 6 7 3 4 1017.0 1017.3 0.0
24/06:26am 2.1 -0.7 1.8 98 0.1 N 6 7 3 4 1016.9 1017.2 0.0
24/06:06am 1.9 -1.0 1.6 98 0.1 N 6 7 3 4 1016.8 1017.1 0.0
24/06:00am 2.0 -1.0 1.7 98 0.1 N 7 9 4 5 1016.7 1017.0 0.0
24/05:46am 1.9 -1.2 1.5 97 0.2 N 7 9 4 5 1016.5 1016.8 0.0
24/05:30am 2.4 -1.0 2.0 97 0.2 N 9 11 5 6 1016.4 1016.7 0.0
24/05:00am 2.9 0.0 2.6 98 0.1 N 7 11 4 6 1016.0 1016.3 0.0
24/04:30am 2.6 -0.2 2.0 96 0.2 N 6 7 3 4 1015.5 1015.8 0.0
24/04:00am 4.0 1.3 3.6 97 0.2 N 7 11 4 6 1015.6 1015.9 0.0
24/03:30am 3.5 2.0 2.8 95 0.3 CALM 0 0 0 0 1015.7 1016.0 0.0
24/03:22am 3.7 1.8 3.0 95 0.3 N 2 6 1 3 1015.7 1016.0 0.0
24/03:00am 4.2 2.8 3.5 95 0.3 CALM 0 0 0 0 1015.8 1016.1 0.0
24/02:30am 4.0 2.6 3.4 96 0.2 CALM 0 0 0 0 1015.7 1016.0 0.0
24/02:00am 4.1 2.7 3.5 96 0.2 CALM 0 0 0 0 1015.7 1016.0 0.0
24/01:39am 3.4 1.7 2.1 91 0.5 CALM 0 0 0 0 1015.6 1015.9 0.0
24/01:30am 4.5 3.1 3.6 94 0.4 CALM 0 0 0 0 1015.6 1015.9 0.0
24/01:00am 5.0 3.7 4.0 93 0.4 CALM 0 0 0 0 1015.4 1015.7 0.0
24/12:30am 6.2 5.0 4.7 90 0.7 CALM 0 0 0 0 1015.5 1015.8 0.0
24/12:00am 7.0 4.3 5.6 91 0.6 N 9 9 5 5 1015.7 1016.0 0.0

Other Formats:

Comma delimited format used in spreadsheet applications
http://www.bom.gov.au/fwo/IDV60801/IDV60801.94874.axf

JavaScript Object Notation format (JSON) in row-major order
http://www.bom.gov.au/fwo/IDV60801/IDV60801.94874.json